sensor_id;sensor_type;location;lat;lon;timestamp;temperature;humidity
13231;DHT22;6681;53.254;10.398;2023-03-08T00:00:49;0.10;99.90
13231;DHT22;6681;53.254;10.398;2023-03-08T00:03:15;0.10;99.90
13231;DHT22;6681;53.254;10.398;2023-03-08T00:05:41;0.30;99.90
13231;DHT22;6681;53.254;10.398;2023-03-08T00:08:07;0.30;99.90
13231;DHT22;6681;53.254;10.398;2023-03-08T00:10:33;0.30;99.90
13231;DHT22;6681;53.254;10.398;2023-03-08T00:12:58;0.10;99.90
13231;DHT22;6681;53.254;10.398;2023-03-08T00:15:24;0.10;99.90
13231;DHT22;6681;53.254;10.398;2023-03-08T00:17:50;0.00;99.90
13231;DHT22;6681;53.254;10.398;2023-03-08T00:20:15;0.00;99.90
13231;DHT22;6681;53.254;10.398;2023-03-08T00:22:41;0.00;99.90
13231;DHT22;6681;53.254;10.398;2023-03-08T00:25:08;0.00;99.90
13231;DHT22;6681;53.254;10.398;2023-03-08T00:27:35;0.00;99.90
13231;DHT22;6681;53.254;10.398;2023-03-08T00:30:02;0.40;99.90
13231;DHT22;6681;53.254;10.398;2023-03-08T00:32:28;0.00;99.90
13231;DHT22;6681;53.254;10.398;2023-03-08T00:34:54;-0.10;99.90
13231;DHT22;6681;53.254;10.398;2023-03-08T00:37:20;1.30;99.90
13231;DHT22;6681;53.254;10.398;2023-03-08T00:39:53;0.10;99.90
13231;DHT22;6681;53.254;10.398;2023-03-08T00:42:20;1.50;99.90
13231;DHT22;6681;53.254;10.398;2023-03-08T00:44:46;-0.10;99.90
13231;DHT22;6681;53.254;10.398;2023-03-08T00:47:11;0.30;99.90
13231;DHT22;6681;53.254;10.398;2023-03-08T00:49:37;0.50;99.90
13231;DHT22;6681;53.254;10.398;2023-03-08T00:52:03;0.00;99.90
13231;DHT22;6681;53.254;10.398;2023-03-08T00:54:29;0.00;99.90
13231;DHT22;6681;53.254;10.398;2023-03-08T00:56:55;0.30;99.90
13231;DHT22;6681;53.254;10.398;2023-03-08T00:59:20;1.20;99.90
13231;DHT22;6681;53.254;10.398;2023-03-08T01:01:46;-0.10;99.90
13231;DHT22;6681;53.254;10.398;2023-03-08T01:04:12;1.50;99.90
13231;DHT22;6681;53.254;10.398;2023-03-08T01:06:38;-0.10;99.90
13231;DHT22;6681;53.254;10.398;2023-03-08T01:09:04;-0.10;99.90
13231;DHT22;6681;53.254;10.398;2023-03-08T01:11:30;1.40;99.90
13231;DHT22;6681;53.254;10.398;2023-03-08T01:13:57;1.50;99.90
13231;DHT22;6681;53.254;10.398;2023-03-08T01:16:25;-0.10;99.90
13231;DHT22;6681;53.254;10.398;2023-03-08T01:18:52;-0.10;99.90
13231;DHT22;6681;53.254;10.398;2023-03-08T01:21:18;-0.20;99.90
13231;DHT22;6681;53.254;10.398;2023-03-08T01:23:45;-0.20;99.90
13231;DHT22;6681;53.254;10.398;2023-03-08T01:26:13;-0.20;99.90
13231;DHT22;6681;53.254;10.398;2023-03-08T01:28:38;-0.20;99.90
13231;DHT22;6681;53.254;10.398;2023-03-08T01:31:13;-0.30;99.90
13231;DHT22;6681;53.254;10.398;2023-03-08T01:33:40;-0.30;99.90
13231;DHT22;6681;53.254;10.398;2023-03-08T01:36:08;-0.30;99.90
13231;DHT22;6681;53.254;10.398;2023-03-08T01:38:34;-0.20;99.90
13231;DHT22;6681;53.254;10.398;2023-03-08T01:41:01;-0.20;99.90
13231;DHT22;6681;53.254;10.398;2023-03-08T01:43:34;0.20;99.90
13231;DHT22;6681;53.254;10.398;2023-03-08T01:46:03;-0.20;99.90
13231;DHT22;6681;53.254;10.398;2023-03-08T01:48:37;-0.20;99.90
13231;DHT22;6681;53.254;10.398;2023-03-08T01:51:06;-0.20;99.90
13231;DHT22;6681;53.254;10.398;2023-03-08T01:53:34;-0.20;99.90
13231;DHT22;6681;53.254;10.398;2023-03-08T01:56:03;1.30;99.90
13231;DHT22;6681;53.254;10.398;2023-03-08T01:58:29;-0.20;99.90
13231;DHT22;6681;53.254;10.398;2023-03-08T02:00:55;1.30;99.90
13231;DHT22;6681;53.254;10.398;2023-03-08T02:03:20;0.00;99.90
13231;DHT22;6681;53.254;10.398;2023-03-08T02:05:47;-0.20;99.90
13231;DHT22;6681;53.254;10.398;2023-03-08T02:08:13;-0.20;99.90
13231;DHT22;6681;53.254;10.398;2023-03-08T02:10:39;-0.20;99.90
13231;DHT22;6681;53.254;10.398;2023-03-08T02:13:05;-0.10;99.90
13231;DHT22;6681;53.254;10.398;2023-03-08T02:15:32;-0.20;99.90
13231;DHT22;6681;53.254;10.398;2023-03-08T02:17:57;-0.20;99.90
13231;DHT22;6681;53.254;10.398;2023-03-08T02:22:51;-0.20;99.90
13231;DHT22;6681;53.254;10.398;2023-03-08T02:25:21;-0.20;99.90
13231;DHT22;6681;53.254;10.398;2023-03-08T02:27:48;-0.10;99.90
13231;DHT22;6681;53.254;10.398;2023-03-08T02:30:17;1.20;99.90
13231;DHT22;6681;53.254;10.398;2023-03-08T02:32:43;1.00;99.90
13231;DHT22;6681;53.254;10.398;2023-03-08T02:35:09;-0.10;99.90
13231;DHT22;6681;53.254;10.398;2023-03-08T02:37:35;-0.10;99.90
13231;DHT22;6681;53.254;10.398;2023-03-08T02:40:01;-0.10;99.90
13231;DHT22;6681;53.254;10.398;2023-03-08T02:42:26;-0.10;99.90
13231;DHT22;6681;53.254;10.398;2023-03-08T02:44:52;0.20;99.90
13231;DHT22;6681;53.254;10.398;2023-03-08T02:47:17;-0.10;99.90
13231;DHT22;6681;53.254;10.398;2023-03-08T02:49:43;0.00;99.90
13231;DHT22;6681;53.254;10.398;2023-03-08T02:52:09;0.00;99.90
13231;DHT22;6681;53.254;10.398;2023-03-08T02:54:37;0.00;99.90
13231;DHT22;6681;53.254;10.398;2023-03-08T02:57:03;0.00;99.90
13231;DHT22;6681;53.254;10.398;2023-03-08T02:59:28;0.00;99.90
13231;DHT22;6681;53.254;10.398;2023-03-08T03:01:55;0.00;99.90
13231;DHT22;6681;53.254;10.398;2023-03-08T03:04:21;0.30;99.90
13231;DHT22;6681;53.254;10.398;2023-03-08T03:06:47;1.80;99.90
13231;DHT22;6681;53.254;10.398;2023-03-08T03:09:13;0.10;99.90
13231;DHT22;6681;53.254;10.398;2023-03-08T03:11:39;0.10;99.90
13231;DHT22;6681;53.254;10.398;2023-03-08T03:14:06;2.10;99.90
13231;DHT22;6681;53.254;10.398;2023-03-08T03:16:31;0.20;99.90
13231;DHT22;6681;53.254;10.398;2023-03-08T03:18:57;0.10;99.90
13231;DHT22;6681;53.254;10.398;2023-03-08T03:21:23;0.10;99.90
13231;DHT22;6681;53.254;10.398;2023-03-08T03:23:49;0.20;99.90
13231;DHT22;6681;53.254;10.398;2023-03-08T03:26:17;0.20;99.90
13231;DHT22;6681;53.254;10.398;2023-03-08T03:28:47;0.20;99.90
13231;DHT22;6681;53.254;10.398;2023-03-08T03:31:16;0.40;99.90
13231;DHT22;6681;53.254;10.398;2023-03-08T03:33:42;0.20;99.90
13231;DHT22;6681;53.254;10.398;2023-03-08T03:36:11;0.30;99.90
13231;DHT22;6681;53.254;10.398;2023-03-08T03:38:37;0.30;99.90
13231;DHT22;6681;53.254;10.398;2023-03-08T03:41:06;0.30;99.90
13231;DHT22;6681;53.254;10.398;2023-03-08T03:43:32;0.80;99.90
13231;DHT22;6681;53.254;10.398;2023-03-08T03:46:00;1.80;99.90
13231;DHT22;6681;53.254;10.398;2023-03-08T03:48:26;0.40;99.90
13231;DHT22;6681;53.254;10.398;2023-03-08T03:50:56;0.40;99.90
13231;DHT22;6681;53.254;10.398;2023-03-08T03:53:22;0.40;99.90
13231;DHT22;6681;53.254;10.398;2023-03-08T03:55:48;0.40;99.90
13231;DHT22;6681;53.254;10.398;2023-03-08T03:58:14;0.40;99.90
13231;DHT22;6681;53.254;10.398;2023-03-08T04:00:40;1.70;99.90
13231;DHT22;6681;53.254;10.398;2023-03-08T04:03:06;0.90;99.90
13231;DHT22;6681;53.254;10.398;2023-03-08T04:05:31;0.40;99.90
13231;DHT22;6681;53.254;10.398;2023-03-08T04:07:57;0.40;99.90
13231;DHT22;6681;53.254;10.398;2023-03-08T04:10:23;0.60;99.90
13231;DHT22;6681;53.254;10.398;2023-03-08T04:12:49;0.40;99.90
13231;DHT22;6681;53.254;10.398;2023-03-08T04:15:14;0.50;99.90
13231;DHT22;6681;53.254;10.398;2023-03-08T04:17:40;0.40;99.90
13231;DHT22;6681;53.254;10.398;2023-03-08T04:20:07;0.50;99.90
13231;DHT22;6681;53.254;10.398;2023-03-08T04:22:32;0.50;99.90
13231;DHT22;6681;53.254;10.398;2023-03-08T04:24:58;0.50;99.90
13231;DHT22;6681;53.254;10.398;2023-03-08T04:27:24;0.50;99.90
13231;DHT22;6681;53.254;10.398;2023-03-08T04:29:49;1.50;99.90
13231;DHT22;6681;53.254;10.398;2023-03-08T04:32:15;0.60;99.90
13231;DHT22;6681;53.254;10.398;2023-03-08T04:34:41;0.50;99.90
13231;DHT22;6681;53.254;10.398;2023-03-08T04:37:11;0.50;99.90
13231;DHT22;6681;53.254;10.398;2023-03-08T04:39:36;0.50;99.90
13231;DHT22;6681;53.254;10.398;2023-03-08T04:42:02;0.60;99.90
13231;DHT22;6681;53.254;10.398;2023-03-08T04:44:28;0.50;99.90
13231;DHT22;6681;53.254;10.398;2023-03-08T04:46:54;0.50;99.90
13231;DHT22;6681;53.254;10.398;2023-03-08T04:49:19;0.50;99.90
13231;DHT22;6681;53.254;10.398;2023-03-08T04:51:45;0.40;99.90
13231;DHT22;6681;53.254;10.398;2023-03-08T04:54:11;0.50;99.90
13231;DHT22;6681;53.254;10.398;2023-03-08T04:56:36;0.50;99.90
13231;DHT22;6681;53.254;10.398;2023-03-08T04:59:02;0.50;99.90
13231;DHT22;6681;53.254;10.398;2023-03-08T05:01:28;1.80;99.90
13231;DHT22;6681;53.254;10.398;2023-03-08T05:03:54;2.20;99.90
13231;DHT22;6681;53.254;10.398;2023-03-08T05:06:22;0.50;99.90
13231;DHT22;6681;53.254;10.398;2023-03-08T05:08:48;2.00;99.90
13231;DHT22;6681;53.254;10.398;2023-03-08T05:11:25;0.50;99.90
13231;DHT22;6681;53.254;10.398;2023-03-08T05:13:56;0.50;99.90
13231;DHT22;6681;53.254;10.398;2023-03-08T05:16:22;0.50;99.90
13231;DHT22;6681;53.254;10.398;2023-03-08T05:18:48;0.50;99.90
13231;DHT22;6681;53.254;10.398;2023-03-08T05:21:18;0.50;99.90
13231;DHT22;6681;53.254;10.398;2023-03-08T05:23:45;0.70;99.90
13231;DHT22;6681;53.254;10.398;2023-03-08T05:26:13;0.50;99.90
13231;DHT22;6681;53.254;10.398;2023-03-08T05:28:40;0.70;99.90
13231;DHT22;6681;53.254;10.398;2023-03-08T05:31:19;0.50;99.90
13231;DHT22;6681;53.254;10.398;2023-03-08T05:33:48;0.50;99.90
13231;DHT22;6681;53.254;10.398;2023-03-08T05:36:16;0.60;99.90
13231;DHT22;6681;53.254;10.398;2023-03-08T05:38:42;0.50;99.90
13231;DHT22;6681;53.254;10.398;2023-03-08T05:41:12;0.60;99.90
13231;DHT22;6681;53.254;10.398;2023-03-08T05:43:38;0.60;99.90
13231;DHT22;6681;53.254;10.398;2023-03-08T05:46:05;0.60;99.90
13231;DHT22;6681;53.254;10.398;2023-03-08T05:48:35;0.60;99.90
13231;DHT22;6681;53.254;10.398;2023-03-08T05:51:12;0.80;99.90
13231;DHT22;6681;53.254;10.398;2023-03-08T05:53:38;0.60;99.90
13231;DHT22;6681;53.254;10.398;2023-03-08T05:56:16;0.70;99.90
13231;DHT22;6681;53.254;10.398;2023-03-08T05:58:42;0.60;99.90
13231;DHT22;6681;53.254;10.398;2023-03-08T06:01:14;1.40;99.90
13231;DHT22;6681;53.254;10.398;2023-03-08T06:03:44;0.50;99.90
13231;DHT22;6681;53.254;10.398;2023-03-08T06:06:11;0.50;99.90
13231;DHT22;6681;53.254;10.398;2023-03-08T06:08:37;0.50;99.90
13231;DHT22;6681;53.254;10.398;2023-03-08T06:11:02;0.50;99.90
13231;DHT22;6681;53.254;10.398;2023-03-08T06:13:28;0.50;99.90
13231;DHT22;6681;53.254;10.398;2023-03-08T06:15:55;2.00;99.90
13231;DHT22;6681;53.254;10.398;2023-03-08T06:18:22;0.50;99.90
13231;DHT22;6681;53.254;10.398;2023-03-08T06:21:05;0.90;99.90
13231;DHT22;6681;53.254;10.398;2023-03-08T06:23:35;0.50;99.90
13231;DHT22;6681;53.254;10.398;2023-03-08T06:26:01;0.50;99.90
13231;DHT22;6681;53.254;10.398;2023-03-08T06:28:27;0.50;99.90
13231;DHT22;6681;53.254;10.398;2023-03-08T06:30:54;0.60;99.90
13231;DHT22;6681;53.254;10.398;2023-03-08T06:33:22;0.60;99.90
13231;DHT22;6681;53.254;10.398;2023-03-08T06:35:56;0.50;99.90
13231;DHT22;6681;53.254;10.398;2023-03-08T06:38:22;0.80;99.90
13231;DHT22;6681;53.254;10.398;2023-03-08T06:40:48;0.60;99.90
13231;DHT22;6681;53.254;10.398;2023-03-08T06:43:14;0.60;99.90
13231;DHT22;6681;53.254;10.398;2023-03-08T06:45:39;0.60;99.90
13231;DHT22;6681;53.254;10.398;2023-03-08T06:48:05;0.60;99.90
13231;DHT22;6681;53.254;10.398;2023-03-08T06:50:32;1.50;99.90
13231;DHT22;6681;53.254;10.398;2023-03-08T06:52:57;0.70;99.90
13231;DHT22;6681;53.254;10.398;2023-03-08T06:55:23;0.70;99.90
13231;DHT22;6681;53.254;10.398;2023-03-08T06:57:52;0.90;99.90
13231;DHT22;6681;53.254;10.398;2023-03-08T07:00:20;0.70;99.90
13231;DHT22;6681;53.254;10.398;2023-03-08T07:02:46;0.80;99.90
13231;DHT22;6681;53.254;10.398;2023-03-08T07:05:13;0.80;99.90
13231;DHT22;6681;53.254;10.398;2023-03-08T07:07:39;0.80;99.90
13231;DHT22;6681;53.254;10.398;2023-03-08T07:10:06;0.80;99.90
13231;DHT22;6681;53.254;10.398;2023-03-08T07:12:31;0.80;99.90
13231;DHT22;6681;53.254;10.398;2023-03-08T07:14:57;0.80;99.90
13231;DHT22;6681;53.254;10.398;2023-03-08T07:17:23;0.80;99.90
13231;DHT22;6681;53.254;10.398;2023-03-08T07:19:49;0.80;99.90
13231;DHT22;6681;53.254;10.398;2023-03-08T07:22:15;0.80;99.90
13231;DHT22;6681;53.254;10.398;2023-03-08T07:24:40;0.80;99.90
13231;DHT22;6681;53.254;10.398;2023-03-08T07:27:06;0.90;99.90
13231;DHT22;6681;53.254;10.398;2023-03-08T07:29:32;0.80;99.90
13231;DHT22;6681;53.254;10.398;2023-03-08T07:31:57;0.90;99.90
13231;DHT22;6681;53.254;10.398;2023-03-08T07:34:23;0.90;99.90
13231;DHT22;6681;53.254;10.398;2023-03-08T07:36:49;0.90;99.90
13231;DHT22;6681;53.254;10.398;2023-03-08T07:39:16;2.10;99.90
13231;DHT22;6681;53.254;10.398;2023-03-08T07:41:41;0.90;99.90
13231;DHT22;6681;53.254;10.398;2023-03-08T07:44:07;1.00;99.90
13231;DHT22;6681;53.254;10.398;2023-03-08T07:46:33;1.00;99.90
13231;DHT22;6681;53.254;10.398;2023-03-08T07:48:58;2.60;99.90
13231;DHT22;6681;53.254;10.398;2023-03-08T07:51:24;2.40;99.90
13231;DHT22;6681;53.254;10.398;2023-03-08T07:53:51;1.10;99.90
13231;DHT22;6681;53.254;10.398;2023-03-08T07:56:16;1.80;99.90
13231;DHT22;6681;53.254;10.398;2023-03-08T07:58:42;1.10;99.90
13231;DHT22;6681;53.254;10.398;2023-03-08T08:01:09;1.20;99.90
13231;DHT22;6681;53.254;10.398;2023-03-08T08:03:36;1.20;99.90
13231;DHT22;6681;53.254;10.398;2023-03-08T08:06:04;1.20;99.90
13231;DHT22;6681;53.254;10.398;2023-03-08T08:08:30;1.30;99.90
13231;DHT22;6681;53.254;10.398;2023-03-08T08:10:56;2.40;99.90
13231;DHT22;6681;53.254;10.398;2023-03-08T08:13:21;1.30;99.90
13231;DHT22;6681;53.254;10.398;2023-03-08T08:15:59;1.30;99.90
13231;DHT22;6681;53.254;10.398;2023-03-08T08:18:26;1.40;99.90
13231;DHT22;6681;53.254;10.398;2023-03-08T08:20:59;1.30;99.90
13231;DHT22;6681;53.254;10.398;2023-03-08T08:23:25;1.40;99.90
13231;DHT22;6681;53.254;10.398;2023-03-08T08:25:51;1.40;99.90
13231;DHT22;6681;53.254;10.398;2023-03-08T08:28:17;1.40;99.90
13231;DHT22;6681;53.254;10.398;2023-03-08T08:30:43;1.40;99.90
13231;DHT22;6681;53.254;10.398;2023-03-08T08:33:09;1.50;99.90
13231;DHT22;6681;53.254;10.398;2023-03-08T08:35:42;1.90;99.90
13231;DHT22;6681;53.254;10.398;2023-03-08T08:38:07;1.50;99.90
13231;DHT22;6681;53.254;10.398;2023-03-08T08:40:33;1.50;99.90
13231;DHT22;6681;53.254;10.398;2023-03-08T08:42:58;1.50;99.90
13231;DHT22;6681;53.254;10.398;2023-03-08T08:45:24;1.60;99.90
13231;DHT22;6681;53.254;10.398;2023-03-08T08:47:50;1.60;99.90
13231;DHT22;6681;53.254;10.398;2023-03-08T08:50:15;1.60;99.90
13231;DHT22;6681;53.254;10.398;2023-03-08T08:52:41;1.60;99.90
13231;DHT22;6681;53.254;10.398;2023-03-08T08:55:07;1.70;99.90
13231;DHT22;6681;53.254;10.398;2023-03-08T08:57:33;1.60;99.90
13231;DHT22;6681;53.254;10.398;2023-03-08T08:59:59;1.70;99.90
13231;DHT22;6681;53.254;10.398;2023-03-08T09:02:25;1.70;99.90
13231;DHT22;6681;53.254;10.398;2023-03-08T09:04:50;1.60;99.90
13231;DHT22;6681;53.254;10.398;2023-03-08T09:07:16;1.60;99.90
13231;DHT22;6681;53.254;10.398;2023-03-08T09:09:41;2.00;99.90
13231;DHT22;6681;53.254;10.398;2023-03-08T09:12:07;1.60;99.90
13231;DHT22;6681;53.254;10.398;2023-03-08T09:14:33;1.70;99.90
13231;DHT22;6681;53.254;10.398;2023-03-08T09:16:59;1.60;99.90
13231;DHT22;6681;53.254;10.398;2023-03-08T09:19:25;2.80;99.90
13231;DHT22;6681;53.254;10.398;2023-03-08T09:21:50;1.70;99.90
13231;DHT22;6681;53.254;10.398;2023-03-08T09:24:16;1.70;99.90
13231;DHT22;6681;53.254;10.398;2023-03-08T09:26:42;3.40;99.90
13231;DHT22;6681;53.254;10.398;2023-03-08T09:29:08;2.00;99.90
13231;DHT22;6681;53.254;10.398;2023-03-08T09:31:36;2.80;99.90
13231;DHT22;6681;53.254;10.398;2023-03-08T09:34:02;1.80;99.90
13231;DHT22;6681;53.254;10.398;2023-03-08T09:36:33;1.80;99.90
13231;DHT22;6681;53.254;10.398;2023-03-08T09:38:59;1.90;99.90
13231;DHT22;6681;53.254;10.398;2023-03-08T09:44:23;2.00;99.90
13231;DHT22;6681;53.254;10.398;2023-03-08T09:46:59;2.00;99.90
13231;DHT22;6681;53.254;10.398;2023-03-08T09:49:30;2.10;99.90
13231;DHT22;6681;53.254;10.398;2023-03-08T09:52:21;3.50;99.90
13231;DHT22;6681;53.254;10.398;2023-03-08T09:54:49;2.20;99.90
13231;DHT22;6681;53.254;10.398;2023-03-08T09:57:23;2.60;99.90
13231;DHT22;6681;53.254;10.398;2023-03-08T09:59:56;2.40;99.90
13231;DHT22;6681;53.254;10.398;2023-03-08T10:05:19;2.40;99.90
13231;DHT22;6681;53.254;10.398;2023-03-08T10:08:01;2.40;99.90
13231;DHT22;6681;53.254;10.398;2023-03-08T10:10:56;2.30;99.90
13231;DHT22;6681;53.254;10.398;2023-03-08T10:13:41;2.30;99.90
13231;DHT22;6681;53.254;10.398;2023-03-08T10:21:15;2.60;99.90
13231;DHT22;6681;53.254;10.398;2023-03-08T10:23:47;2.60;99.90
13231;DHT22;6681;53.254;10.398;2023-03-08T10:26:15;2.70;99.90
13231;DHT22;6681;53.254;10.398;2023-03-08T10:28:42;3.20;99.90
13231;DHT22;6681;53.254;10.398;2023-03-08T10:31:24;2.60;99.90
13231;DHT22;6681;53.254;10.398;2023-03-08T10:34:03;2.70;99.90
13231;DHT22;6681;53.254;10.398;2023-03-08T10:36:31;2.70;99.90
13231;DHT22;6681;53.254;10.398;2023-03-08T10:39:04;2.70;99.90
13231;DHT22;6681;53.254;10.398;2023-03-08T10:41:31;2.70;99.90
13231;DHT22;6681;53.254;10.398;2023-03-08T10:44:00;2.80;99.90
13231;DHT22;6681;53.254;10.398;2023-03-08T10:46:27;2.90;99.90
13231;DHT22;6681;53.254;10.398;2023-03-08T10:49:07;2.90;99.90
13231;DHT22;6681;53.254;10.398;2023-03-08T10:51:33;3.00;99.90
13231;DHT22;6681;53.254;10.398;2023-03-08T10:54:04;3.00;99.90
13231;DHT22;6681;53.254;10.398;2023-03-08T10:56:41;3.50;99.90
13231;DHT22;6681;53.254;10.398;2023-03-08T10:59:24;3.10;99.90
13231;DHT22;6681;53.254;10.398;2023-03-08T11:02:07;3.10;99.90
13231;DHT22;6681;53.254;10.398;2023-03-08T11:05:14;3.10;99.90
13231;DHT22;6681;53.254;10.398;2023-03-08T11:07:49;3.00;99.90
13231;DHT22;6681;53.254;10.398;2023-03-08T11:10:18;3.00;99.90
13231;DHT22;6681;53.254;10.398;2023-03-08T11:12:44;2.90;99.90
13231;DHT22;6681;53.254;10.398;2023-03-08T11:15:18;3.30;99.90
13231;DHT22;6681;53.254;10.398;2023-03-08T11:17:57;3.10;99.90
13231;DHT22;6681;53.254;10.398;2023-03-08T11:20:30;3.20;99.90
13231;DHT22;6681;53.254;10.398;2023-03-08T11:23:53;3.20;99.90
13231;DHT22;6681;53.254;10.398;2023-03-08T11:25:58;3.20;99.90
13231;DHT22;6681;53.254;10.398;2023-03-08T11:28:55;3.20;99.90
13231;DHT22;6681;53.254;10.398;2023-03-08T11:34:20;3.30;99.90
13231;DHT22;6681;53.254;10.398;2023-03-08T11:42:19;3.60;99.90
13231;DHT22;6681;53.254;10.398;2023-03-08T11:45:22;3.60;99.90
13231;DHT22;6681;53.254;10.398;2023-03-08T11:50:50;3.70;99.90
13231;DHT22;6681;53.254;10.398;2023-03-08T12:01:36;3.80;99.90
13231;DHT22;6681;53.254;10.398;2023-03-08T12:07:41;3.70;99.90
13231;DHT22;6681;53.254;10.398;2023-03-08T12:10:14;3.70;99.90
13231;DHT22;6681;53.254;10.398;2023-03-08T12:15:30;3.90;99.90
13231;DHT22;6681;53.254;10.398;2023-03-08T12:20:43;4.10;99.90
13231;DHT22;6681;53.254;10.398;2023-03-08T12:23:42;4.20;99.90
13231;DHT22;6681;53.254;10.398;2023-03-08T12:26:32;4.20;99.90
13231;DHT22;6681;53.254;10.398;2023-03-08T12:29:08;4.30;99.90
13231;DHT22;6681;53.254;10.398;2023-03-08T12:31:43;4.40;99.90
13231;DHT22;6681;53.254;10.398;2023-03-08T12:37:00;4.30;99.90
13231;DHT22;6681;53.254;10.398;2023-03-08T12:39:33;4.20;99.90
13231;DHT22;6681;53.254;10.398;2023-03-08T12:44:37;4.10;99.90
13231;DHT22;6681;53.254;10.398;2023-03-08T12:47:23;5.50;99.90
13231;DHT22;6681;53.254;10.398;2023-03-08T12:49:55;4.50;99.90
13231;DHT22;6681;53.254;10.398;2023-03-08T12:52:32;4.20;99.90
13231;DHT22;6681;53.254;10.398;2023-03-08T12:57:52;4.20;99.90
13231;DHT22;6681;53.254;10.398;2023-03-08T13:00:25;4.20;99.90
13231;DHT22;6681;53.254;10.398;2023-03-08T13:08:18;4.20;99.90
13231;DHT22;6681;53.254;10.398;2023-03-08T13:11:01;4.20;99.90
13231;DHT22;6681;53.254;10.398;2023-03-08T13:19:02;3.90;99.90
13231;DHT22;6681;53.254;10.398;2023-03-08T13:21:32;4.00;99.90
13231;DHT22;6681;53.254;10.398;2023-03-08T13:27:27;3.90;99.90
13231;DHT22;6681;53.254;10.398;2023-03-08T13:30:06;4.00;99.90
13231;DHT22;6681;53.254;10.398;2023-03-08T13:32:38;6.10;99.90
13231;DHT22;6681;53.254;10.398;2023-03-08T13:35:04;4.30;99.90
13231;DHT22;6681;53.254;10.398;2023-03-08T13:37:30;4.30;99.90
13231;DHT22;6681;53.254;10.398;2023-03-08T13:39:58;4.30;99.90
13231;DHT22;6681;53.254;10.398;2023-03-08T13:42:26;4.40;99.90
13231;DHT22;6681;53.254;10.398;2023-03-08T13:45:04;4.70;99.90
13231;DHT22;6681;53.254;10.398;2023-03-08T13:47:33;4.50;99.90
13231;DHT22;6681;53.254;10.398;2023-03-08T13:49:59;4.40;99.90
13231;DHT22;6681;53.254;10.398;2023-03-08T13:52:30;4.40;99.90
13231;DHT22;6681;53.254;10.398;2023-03-08T13:55:04;4.40;99.90
13231;DHT22;6681;53.254;10.398;2023-03-08T13:57:35;4.30;99.90
13231;DHT22;6681;53.254;10.398;2023-03-08T14:00:20;4.60;99.90
13231;DHT22;6681;53.254;10.398;2023-03-08T14:02:47;4.30;99.90
13231;DHT22;6681;53.254;10.398;2023-03-08T14:05:32;4.30;99.90
13231;DHT22;6681;53.254;10.398;2023-03-08T14:08:03;4.10;99.90
13231;DHT22;6681;53.254;10.398;2023-03-08T14:13:19;4.00;99.90
13231;DHT22;6681;53.254;10.398;2023-03-08T14:15:54;4.00;99.90
13231;DHT22;6681;53.254;10.398;2023-03-08T14:21:04;4.10;99.90
13231;DHT22;6681;53.254;10.398;2023-03-08T14:23:38;4.10;99.90
13231;DHT22;6681;53.254;10.398;2023-03-08T14:26:05;4.10;99.90
13231;DHT22;6681;53.254;10.398;2023-03-08T14:28:33;4.10;99.90
13231;DHT22;6681;53.254;10.398;2023-03-08T14:30:59;4.50;99.90
13231;DHT22;6681;53.254;10.398;2023-03-08T14:33:25;4.80;99.90
13231;DHT22;6681;53.254;10.398;2023-03-08T14:35:55;4.70;99.90
13231;DHT22;6681;53.254;10.398;2023-03-08T14:38:31;4.90;99.90
13231;DHT22;6681;53.254;10.398;2023-03-08T14:41:02;4.40;99.90
13231;DHT22;6681;53.254;10.398;2023-03-08T14:43:30;4.40;99.90
13231;DHT22;6681;53.254;10.398;2023-03-08T14:46:05;5.70;99.90
13231;DHT22;6681;53.254;10.398;2023-03-08T14:48:33;4.50;99.90
13231;DHT22;6681;53.254;10.398;2023-03-08T14:51:04;4.30;99.90
13231;DHT22;6681;53.254;10.398;2023-03-08T14:53:41;4.10;99.90
13231;DHT22;6681;53.254;10.398;2023-03-08T14:56:10;4.70;99.90
13231;DHT22;6681;53.254;10.398;2023-03-08T14:58:39;4.90;99.90
13231;DHT22;6681;53.254;10.398;2023-03-08T15:01:05;4.00;99.90
13231;DHT22;6681;53.254;10.398;2023-03-08T15:03:31;3.90;99.90
13231;DHT22;6681;53.254;10.398;2023-03-08T15:05:58;3.90;99.90
13231;DHT22;6681;53.254;10.398;2023-03-08T15:08:25;5.50;99.90
13231;DHT22;6681;53.254;10.398;2023-03-08T15:10:51;4.50;99.90
13231;DHT22;6681;53.254;10.398;2023-03-08T15:13:19;4.00;99.90
13231;DHT22;6681;53.254;10.398;2023-03-08T15:15:46;4.00;99.90
13231;DHT22;6681;53.254;10.398;2023-03-08T15:18:12;4.00;99.90
13231;DHT22;6681;53.254;10.398;2023-03-08T15:20:39;4.00;99.90
13231;DHT22;6681;53.254;10.398;2023-03-08T15:23:16;4.10;99.90
13231;DHT22;6681;53.254;10.398;2023-03-08T15:25:42;4.10;99.90
13231;DHT22;6681;53.254;10.398;2023-03-08T15:28:15;4.00;99.90
13231;DHT22;6681;53.254;10.398;2023-03-08T15:30:41;4.00;99.90
13231;DHT22;6681;53.254;10.398;2023-03-08T15:33:07;4.00;99.90
13231;DHT22;6681;53.254;10.398;2023-03-08T15:35:34;3.90;99.90
13231;DHT22;6681;53.254;10.398;2023-03-08T15:38:00;3.90;99.90
13231;DHT22;6681;53.254;10.398;2023-03-08T15:40:27;3.90;99.90
13231;DHT22;6681;53.254;10.398;2023-03-08T15:42:53;3.90;99.90
13231;DHT22;6681;53.254;10.398;2023-03-08T15:45:19;3.90;99.90
13231;DHT22;6681;53.254;10.398;2023-03-08T15:48:04;3.90;99.90
13231;DHT22;6681;53.254;10.398;2023-03-08T15:50:31;4.40;99.90
13231;DHT22;6681;53.254;10.398;2023-03-08T15:52:57;3.90;99.90
13231;DHT22;6681;53.254;10.398;2023-03-08T15:55:24;3.90;99.90
13231;DHT22;6681;53.254;10.398;2023-03-08T15:57:50;3.90;99.90
13231;DHT22;6681;53.254;10.398;2023-03-08T16:00:17;3.90;99.90
13231;DHT22;6681;53.254;10.398;2023-03-08T16:02:43;3.80;99.90
13231;DHT22;6681;53.254;10.398;2023-03-08T16:05:10;3.80;99.90
13231;DHT22;6681;53.254;10.398;2023-03-08T16:07:37;3.80;99.90
13231;DHT22;6681;53.254;10.398;2023-03-08T16:10:04;4.30;99.90
13231;DHT22;6681;53.254;10.398;2023-03-08T16:12:30;3.80;99.90
13231;DHT22;6681;53.254;10.398;2023-03-08T16:14:56;3.70;99.90
13231;DHT22;6681;53.254;10.398;2023-03-08T16:17:23;3.70;99.90
13231;DHT22;6681;53.254;10.398;2023-03-08T16:19:52;3.70;99.90
13231;DHT22;6681;53.254;10.398;2023-03-08T16:22:17;3.70;99.90
13231;DHT22;6681;53.254;10.398;2023-03-08T16:24:43;3.60;99.90
13231;DHT22;6681;53.254;10.398;2023-03-08T16:27:09;5.10;99.90
13231;DHT22;6681;53.254;10.398;2023-03-08T16:29:35;3.90;99.90
13231;DHT22;6681;53.254;10.398;2023-03-08T16:32:00;3.60;99.90
13231;DHT22;6681;53.254;10.398;2023-03-08T16:34:27;3.60;99.90
13231;DHT22;6681;53.254;10.398;2023-03-08T16:36:54;3.60;99.90
13231;DHT22;6681;53.254;10.398;2023-03-08T16:39:20;5.80;99.90
13231;DHT22;6681;53.254;10.398;2023-03-08T16:41:46;3.60;99.90
13231;DHT22;6681;53.254;10.398;2023-03-08T16:44:23;3.50;99.90
13231;DHT22;6681;53.254;10.398;2023-03-08T16:46:49;3.50;99.90
13231;DHT22;6681;53.254;10.398;2023-03-08T16:49:16;4.50;99.90
13231;DHT22;6681;53.254;10.398;2023-03-08T16:51:42;3.70;99.90
13231;DHT22;6681;53.254;10.398;2023-03-08T16:54:09;3.50;99.90
13231;DHT22;6681;53.254;10.398;2023-03-08T16:56:36;5.00;99.90
13231;DHT22;6681;53.254;10.398;2023-03-08T16:59:02;3.60;99.90
13231;DHT22;6681;53.254;10.398;2023-03-08T17:01:29;3.50;99.90
13231;DHT22;6681;53.254;10.398;2023-03-08T17:03:56;4.80;99.90